createdAt,value
2023-01-12T00:01:52.280Z,4.45
2023-01-12T00:04:22.205Z,4.40
2023-01-12T00:06:49.155Z,4.68
2023-01-12T00:09:16.348Z,5.07
2023-01-12T00:11:46.254Z,4.85
2023-01-12T00:14:16.778Z,4.82
2023-01-12T00:16:43.817Z,4.62
2023-01-12T00:19:24.466Z,4.40
2023-01-12T00:21:59.428Z,4.10
2023-01-12T00:24:30.204Z,4.65
2023-01-12T00:27:01.275Z,4.50
2023-01-12T00:29:31.663Z,4.50
2023-01-12T00:32:02.840Z,4.37
2023-01-12T00:34:30.210Z,4.37
2023-01-12T00:36:57.904Z,4.82
2023-01-12T00:39:24.632Z,4.62
2023-01-12T00:41:51.515Z,4.32
2023-01-12T00:44:24.829Z,4.12
2023-01-12T00:46:51.807Z,4.47
2023-01-12T00:49:21.776Z,4.20
2023-01-12T00:51:52.403Z,4.53
2023-01-12T00:54:25.260Z,4.90
2023-01-12T00:56:55.150Z,4.50
2023-01-12T00:59:24.820Z,4.15
2023-01-12T01:01:55.095Z,4.40
2023-01-12T01:04:25.420Z,4.40
2023-01-12T01:06:58.519Z,4.22
2023-01-12T01:09:25.453Z,4.60
2023-01-12T01:11:52.383Z,3.90
2023-01-12T01:14:25.552Z,4.12
2023-01-12T01:16:55.511Z,4.00
2023-01-12T01:19:26.272Z,4.18
2023-01-12T01:21:56.273Z,4.32
2023-01-12T01:24:32.650Z,4.07
2023-01-12T01:27:05.146Z,4.57
2023-01-12T01:29:35.192Z,4.80
2023-01-12T01:32:05.463Z,4.03
2023-01-12T01:34:35.276Z,3.87
2023-01-12T01:37:05.309Z,3.80
2023-01-12T01:39:32.184Z,4.47
2023-01-12T01:42:02.314Z,4.10
2023-01-12T01:44:38.829Z,3.97
2023-01-12T01:47:24.387Z,4.05
2023-01-12T01:49:54.684Z,3.83
2023-01-12T01:52:31.870Z,3.92
2023-01-12T01:55:17.147Z,3.95
2023-01-12T01:57:51.169Z,4.00
2023-01-12T02:00:18.363Z,4.30
2023-01-12T02:02:47.735Z,4.00
2023-01-12T02:05:28.686Z,3.87
2023-01-12T02:08:00.731Z,3.92
2023-01-12T02:10:33.851Z,3.80
2023-01-12T02:13:00.711Z,3.92
2023-01-12T02:15:33.661Z,4.03
2023-01-12T02:18:03.994Z,3.50
2023-01-12T02:20:41.570Z,3.97
2023-01-12T02:23:34.604Z,3.50
2023-01-12T02:26:26.552Z,3.75
2023-01-12T02:29:11.584Z,3.42
2023-01-12T02:31:48.673Z,4.18
2023-01-12T02:34:21.249Z,3.70
2023-01-12T02:37:08.133Z,3.67
2023-01-12T02:39:56.643Z,3.70
2023-01-12T02:42:37.922Z,3.40
2023-01-12T02:45:42.164Z,3.62
2023-01-12T02:48:24.776Z,3.50
2023-01-12T02:50:54.764Z,3.90
2023-01-12T02:53:34.255Z,3.62
2023-01-12T02:56:04.469Z,4.03
2023-01-12T02:58:41.504Z,3.28
2023-01-12T03:01:10.664Z,3.60
2023-01-12T03:03:42.096Z,3.60
2023-01-12T03:06:16.305Z,3.65
2023-01-12T03:08:48.187Z,3.42
2023-01-12T03:11:20.656Z,3.45
2023-01-12T03:13:59.779Z,3.33
2023-01-12T03:16:40.270Z,3.50
2023-01-12T03:19:26.391Z,3.72
2023-01-12T03:22:03.674Z,3.65
2023-01-12T03:24:42.278Z,3.58
2023-01-12T03:27:22.139Z,3.30
2023-01-12T03:30:02.452Z,3.70
2023-01-12T03:32:38.643Z,3.97
2023-01-12T03:35:06.106Z,3.42
2023-01-12T03:37:39.806Z,3.30
2023-01-12T03:40:19.359Z,3.40
2023-01-12T03:43:19.971Z,3.40
2023-01-12T03:45:59.987Z,3.50
2023-01-12T03:48:40.979Z,3.40
2023-01-12T03:51:31.167Z,3.60
2023-01-12T03:54:06.013Z,3.30
2023-01-12T03:56:36.923Z,3.30
2023-01-12T03:59:08.155Z,3.40
2023-01-12T04:01:35.573Z,3.60
2023-01-12T04:04:06.154Z,3.37
2023-01-12T04:06:36.901Z,3.30
2023-01-12T04:09:03.982Z,3.28
2023-01-12T04:11:33.707Z,3.37
2023-01-12T04:14:05.057Z,3.17
2023-01-12T04:16:34.810Z,3.28
2023-01-12T04:19:02.974Z,3.28
2023-01-12T04:21:33.325Z,3.33
2023-01-12T04:24:03.560Z,3.15
2023-01-12T04:26:30.631Z,3.17
2023-01-12T04:29:00.814Z,3.20
2023-01-12T04:31:27.813Z,3.22
2023-01-12T04:33:54.750Z,2.97
2023-01-12T04:36:24.711Z,3.20
2023-01-12T04:38:53.089Z,3.28
2023-01-12T04:41:23.064Z,3.50
2023-01-12T04:43:58.074Z,3.47
2023-01-12T04:46:28.355Z,3.28
2023-01-12T04:48:58.173Z,2.90
2023-01-12T04:51:31.627Z,3.20
2023-01-12T04:54:35.889Z,3.20
2023-01-12T04:57:07.238Z,3.45
2023-01-12T04:59:39.385Z,3.45
2023-01-12T05:02:10.441Z,3.17
2023-01-12T05:04:37.429Z,3.10
2023-01-12T05:07:06.779Z,3.53
2023-01-12T05:09:43.214Z,3.33
2023-01-12T05:15:53.279Z,3.72
2023-01-12T05:18:24.523Z,3.10
2023-01-12T05:20:52.271Z,3.25
2023-01-12T05:23:20.401Z,3.30
2023-01-12T05:26:07.831Z,3.10
2023-01-12T05:28:35.044Z,3.35
2023-01-12T05:31:16.758Z,3.30
2023-01-12T05:33:49.375Z,3.35
2023-01-12T05:36:23.510Z,3.30
2023-01-12T05:38:52.633Z,3.28
2023-01-12T05:41:19.627Z,3.20
2023-01-12T05:43:57.296Z,3.20
2023-01-12T05:46:34.573Z,3.37
2023-01-12T05:49:04.871Z,2.90
2023-01-12T05:51:38.799Z,3.05
2023-01-12T05:54:08.863Z,3.03
2023-01-12T05:56:41.325Z,3.08
2023-01-12T05:59:13.560Z,2.83
2023-01-12T06:01:46.220Z,2.83
2023-01-12T06:04:19.378Z,3.33
2023-01-12T06:06:46.572Z,3.15
2023-01-12T06:09:13.424Z,3.17
2023-01-12T06:11:45.596Z,3.00
2023-01-12T06:14:12.507Z,3.23
2023-01-12T06:16:46.499Z,2.80
2023-01-12T06:19:21.106Z,3.12
2023-01-12T06:21:57.501Z,3.20
2023-01-12T06:24:27.356Z,3.08
2023-01-12T06:27:01.124Z,3.12
2023-01-12T06:29:30.759Z,3.25
2023-01-12T06:31:57.695Z,3.10
2023-01-12T06:34:24.590Z,2.90
2023-01-12T06:36:58.015Z,3.10
2023-01-12T06:39:24.906Z,2.97
2023-01-12T06:41:55.626Z,3.20
2023-01-12T06:44:23.389Z,3.70
2023-01-12T06:46:53.503Z,3.70
2023-01-12T06:49:20.978Z,3.30
2023-01-12T06:51:51.943Z,3.33
2023-01-12T06:54:22.424Z,3.22
2023-01-12T06:56:55.149Z,3.10
2023-01-12T06:59:28.490Z,3.95
2023-01-12T07:02:01.004Z,3.20
2023-01-12T07:04:31.633Z,2.95
2023-01-12T07:07:05.361Z,3.47
2023-01-12T07:09:38.024Z,3.17
2023-01-12T07:12:11.358Z,3.50
2023-01-12T07:14:45.078Z,3.22
2023-01-12T07:17:15.626Z,3.05
2023-01-12T07:19:48.616Z,3.22
2023-01-12T07:22:21.913Z,3.67
2023-01-12T07:24:56.504Z,3.67
2023-01-12T07:27:27.560Z,3.78
2023-01-12T07:29:57.499Z,3.75
2023-01-12T07:32:29.743Z,3.67
2023-01-12T07:34:59.567Z,3.80
2023-01-12T07:37:32.873Z,3.97
2023-01-12T07:40:06.563Z,3.83
2023-01-12T07:42:39.595Z,3.60
2023-01-12T07:47:37.354Z,3.50
2023-01-12T07:50:12.966Z,3.55
2023-01-12T07:52:46.290Z,3.97
2023-01-12T07:55:16.859Z,4.35
2023-01-12T07:57:44.356Z,3.92
2023-01-12T08:00:14.552Z,4.03
2023-01-12T08:02:45.182Z,3.90
2023-01-12T08:05:15.281Z,4.28
2023-01-12T08:07:45.762Z,3.95
2023-01-12T08:10:19.740Z,4.68
2023-01-12T08:12:58.589Z,3.90
2023-01-12T08:15:36.456Z,3.55
2023-01-12T08:18:13.993Z,4.15
2023-01-12T08:20:47.106Z,4.07
2023-01-12T08:25:52.694Z,4.40
2023-01-12T08:28:23.366Z,4.85
2023-01-12T08:30:56.653Z,4.47
2023-01-12T08:33:27.288Z,4.30
2023-01-12T08:35:57.738Z,4.43
2023-01-12T08:38:24.499Z,4.30
2023-01-12T08:40:57.079Z,4.57
2023-01-12T08:43:26.947Z,4.12
2023-01-12T08:46:00.056Z,4.45
2023-01-12T08:51:00.704Z,4.30
2023-01-12T08:53:31.259Z,4.28
2023-01-12T08:56:04.829Z,4.37
2023-01-12T08:58:34.396Z,3.87
2023-01-12T09:01:11.885Z,4.47
2023-01-12T09:03:45.764Z,4.78
2023-01-12T09:06:27.210Z,4.40
2023-01-12T09:09:01.523Z,4.62
2023-01-12T09:11:34.487Z,3.95
2023-01-12T09:16:35.701Z,4.47
2023-01-12T09:19:09.734Z,4.50
2023-01-12T09:21:40.689Z,4.55
2023-01-12T09:24:11.918Z,3.97
2023-01-12T09:26:48.309Z,4.20
2023-01-12T09:29:17.575Z,3.92
2023-01-12T09:31:50.120Z,4.20
2023-01-12T09:34:20.002Z,4.50
2023-01-12T09:36:47.208Z,4.03
2023-01-12T09:39:28.682Z,4.62
2023-01-12T09:42:05.214Z,4.50
2023-01-12T09:44:52.867Z,4.45
2023-01-12T09:47:31.662Z,4.70
2023-01-12T09:50:21.674Z,4.20
2023-01-12T09:52:57.925Z,4.65
2023-01-12T09:55:47.661Z,4.80
2023-01-12T09:58:41.262Z,4.12
2023-01-12T10:01:28.724Z,4.50
2023-01-12T10:04:03.488Z,3.87
2023-01-12T10:06:32.334Z,4.07
2023-01-12T10:09:20.903Z,3.80
2023-01-12T10:12:26.670Z,4.28
2023-01-12T10:15:02.135Z,3.85
2023-01-12T10:18:04.146Z,3.62
2023-01-12T10:20:38.508Z,4.37
2023-01-12T10:23:15.419Z,3.67
2023-01-12T10:26:17.624Z,4.18
2023-01-12T10:28:50.658Z,3.47
2023-01-12T10:34:18.532Z,3.90
2023-01-12T10:36:55.683Z,4.20
2023-01-12T10:39:32.283Z,4.07
2023-01-12T10:42:20.080Z,4.40
2023-01-12T10:45:14.861Z,3.62
2023-01-12T10:47:43.413Z,4.20
2023-01-12T10:50:21.362Z,3.87
2023-01-12T10:52:49.234Z,4.00
2023-01-12T10:55:32.245Z,3.80
2023-01-12T10:57:59.794Z,3.55
2023-01-12T11:00:28.431Z,4.10
2023-01-12T11:03:04.549Z,3.62
2023-01-12T11:05:41.448Z,3.47
2023-01-12T11:08:27.251Z,3.30
2023-01-12T11:10:54.673Z,3.28
2023-01-12T11:13:34.222Z,3.50
2023-01-12T11:16:21.454Z,3.45
2023-01-12T11:19:01.188Z,3.20
2023-01-12T11:21:34.474Z,3.12
2023-01-12T11:24:28.244Z,3.00
2023-01-12T11:27:17.532Z,4.18
2023-01-12T11:30:06.788Z,3.53
2023-01-12T11:32:47.482Z,3.15
2023-01-12T11:35:38.140Z,3.12
2023-01-12T11:38:12.532Z,2.72
2023-01-12T11:40:44.203Z,3.00
2023-01-12T11:43:25.540Z,3.22
2023-01-12T11:45:58.214Z,3.75
2023-01-12T11:48:48.973Z,3.20
2023-01-12T11:51:16.939Z,3.47
2023-01-12T11:53:48.030Z,3.20
2023-01-12T11:56:18.862Z,3.40
2023-01-12T11:58:56.869Z,2.85
2023-01-12T12:01:46.984Z,2.90
2023-01-12T12:04:44.621Z,3.37
2023-01-12T12:07:55.866Z,3.10
2023-01-12T12:10:32.844Z,3.35
2023-01-12T12:13:27.123Z,3.72
2023-01-12T12:16:12.202Z,3.22
2023-01-12T12:19:02.025Z,3.50
2023-01-12T12:21:49.305Z,3.37
2023-01-12T12:25:00.904Z,3.20
2023-01-12T12:27:46.105Z,3.05
2023-01-12T12:30:30.578Z,3.15
2023-01-12T12:33:34.940Z,3.33
2023-01-12T12:36:22.401Z,3.20
2023-01-12T12:39:01.201Z,3.00
2023-01-12T12:41:45.096Z,3.05
2023-01-12T12:44:47.906Z,3.00
2023-01-12T12:47:46.129Z,3.00
2023-01-12T12:50:19.333Z,2.72
2023-01-12T12:52:51.091Z,3.00
2023-01-12T12:55:18.587Z,2.70
2023-01-12T12:58:26.872Z,2.85
2023-01-12T13:01:19.428Z,3.00
2023-01-12T13:03:49.066Z,3.00
2023-01-12T13:06:24.700Z,2.90
2023-01-12T13:08:57.280Z,2.70
2023-01-12T13:11:55.137Z,2.50
2023-01-12T13:14:36.572Z,3.62
2023-01-12T13:17:26.312Z,3.20
2023-01-12T13:20:24.917Z,3.25
2023-01-12T13:22:55.340Z,3.58
2023-01-12T13:25:22.247Z,3.17
2023-01-12T13:27:58.309Z,3.20
2023-01-12T13:30:31.199Z,3.10
2023-01-12T13:35:49.076Z,3.12
2023-01-12T13:38:25.199Z,3.17
2023-01-12T13:41:10.372Z,7.18
2023-01-12T13:43:43.165Z,5.05
2023-01-12T13:46:34.690Z,5.40
2023-01-12T13:49:19.449Z,4.62
2023-01-12T13:52:04.932Z,3.92
2023-01-12T13:54:33.066Z,3.55
2023-01-12T13:57:18.296Z,4.22
2023-01-12T14:00:01.574Z,3.83
2023-01-12T14:05:13.350Z,3.75
2023-01-12T14:08:09.201Z,3.70
2023-01-12T14:10:48.687Z,4.10
2023-01-12T14:13:54.583Z,4.00
2023-01-12T14:16:23.701Z,4.78
2023-01-12T14:18:50.546Z,4.05
2023-01-12T14:21:30.580Z,4.30
2023-01-12T14:24:17.518Z,3.50
2023-01-12T14:26:48.537Z,3.87
2023-01-12T14:29:21.812Z,3.78
2023-01-12T14:31:52.347Z,3.75
2023-01-12T14:34:26.329Z,3.87
2023-01-12T14:36:56.809Z,3.95
2023-01-12T14:39:32.068Z,3.78
2023-01-12T14:42:04.550Z,3.75
2023-01-12T14:44:47.212Z,4.05
2023-01-12T14:47:29.186Z,4.10
2023-01-12T14:50:08.371Z,4.43
2023-01-12T14:52:36.092Z,3.55
2023-01-12T14:55:37.005Z,3.80
2023-01-12T14:58:15.988Z,4.12
2023-01-12T15:00:43.937Z,4.72
2023-01-12T15:03:31.885Z,3.75
2023-01-12T15:06:16.823Z,3.50
2023-01-12T15:08:54.975Z,3.70
2023-01-12T15:11:38.371Z,3.80
2023-01-12T15:14:20.145Z,3.90
2023-01-12T15:16:54.072Z,3.72
2023-01-12T15:19:20.787Z,3.50
2023-01-12T15:21:56.501Z,3.92
2023-01-12T15:24:29.309Z,3.90
2023-01-12T15:27:06.399Z,3.90
2023-01-12T15:29:36.395Z,4.20
2023-01-12T15:32:45.572Z,3.80
2023-01-12T15:35:25.185Z,4.30
2023-01-12T15:37:57.068Z,4.07
2023-01-12T15:40:29.025Z,4.25
2023-01-12T15:42:58.439Z,5.40
2023-01-12T15:45:35.608Z,5.15
2023-01-12T15:48:03.368Z,5.37
2023-01-12T15:50:38.611Z,5.80
2023-01-12T15:53:25.296Z,7.18
2023-01-12T15:55:57.621Z,7.00
2023-01-12T15:58:27.581Z,7.55
2023-01-12T16:01:01.242Z,7.20
2023-01-12T16:04:00.613Z,7.20
2023-01-12T16:06:18.240Z,7.25
2023-01-12T16:08:45.019Z,7.20
2023-01-12T16:11:16.103Z,7.85
2023-01-12T16:13:43.323Z,7.87
2023-01-12T16:16:15.670Z,8.13
2023-01-12T16:18:43.714Z,8.63
2023-01-12T16:21:19.930Z,9.18
2023-01-12T16:23:52.877Z,9.30
2023-01-12T16:26:19.650Z,9.38
2023-01-12T16:28:49.941Z,9.68
2023-01-12T16:31:20.187Z,10.32
2023-01-12T16:33:50.538Z,10.27
2023-01-12T16:36:17.784Z,11.00
2023-01-12T16:38:44.495Z,10.50
2023-01-12T16:41:16.690Z,9.68
2023-01-12T16:43:43.520Z,9.43
2023-01-12T16:46:17.299Z,10.13
2023-01-12T16:48:47.073Z,10.00
2023-01-12T16:51:18.745Z,9.77
2023-01-12T16:53:49.102Z,9.77
2023-01-12T16:56:19.514Z,10.20
2023-01-12T16:58:47.011Z,10.02
2023-01-12T17:01:16.848Z,9.13
2023-01-12T17:03:44.126Z,9.68
2023-01-12T17:06:17.366Z,10.45
2023-01-12T17:11:17.749Z,9.77
2023-01-12T17:13:49.645Z,9.75
2023-01-12T17:16:17.677Z,10.88
2023-01-12T17:18:50.536Z,9.23
2023-01-12T17:21:19.181Z,9.88
2023-01-12T17:23:46.347Z,9.73
2023-01-12T17:26:16.939Z,8.48
2023-01-12T17:28:55.263Z,10.70
2023-01-12T17:31:27.787Z,10.07
2023-01-12T17:33:57.526Z,10.07
2023-01-12T17:36:30.055Z,10.57
2023-01-12T17:39:02.757Z,11.12
2023-01-12T17:41:30.491Z,10.80
2023-01-12T17:44:00.940Z,10.25
2023-01-12T17:46:35.108Z,10.70
2023-01-12T17:49:04.305Z,10.43
2023-01-12T17:51:31.115Z,10.65
2023-01-12T17:54:03.288Z,10.15
2023-01-12T17:56:31.482Z,9.88
2023-01-12T17:58:58.661Z,10.02
2023-01-12T18:01:27.814Z,10.15
2023-01-12T18:04:00.575Z,10.38
2023-01-12T18:06:28.732Z,10.27
2023-01-12T18:08:57.014Z,10.85
2023-01-12T18:11:24.826Z,10.25
2023-01-12T18:13:55.158Z,10.27
2023-01-12T18:16:25.068Z,10.45
2023-01-12T18:18:56.802Z,10.43
2023-01-12T18:21:33.314Z,9.80
2023-01-12T18:24:03.406Z,10.38
2023-01-12T18:26:35.256Z,9.85
2023-01-12T18:29:04.666Z,10.43
2023-01-12T18:31:35.434Z,10.27
2023-01-12T18:34:06.257Z,10.23
2023-01-12T18:36:41.569Z,9.98
2023-01-12T18:39:15.909Z,10.13
2023-01-12T18:41:42.734Z,9.68
2023-01-12T18:44:13.243Z,9.90
2023-01-12T18:46:42.460Z,9.63
2023-01-12T18:49:12.919Z,9.88
2023-01-12T18:51:46.134Z,9.73
2023-01-12T18:54:15.781Z,9.60
2023-01-12T18:56:42.508Z,9.80
2023-01-12T18:59:09.367Z,9.82
2023-01-12T19:01:36.378Z,10.23
2023-01-12T19:04:03.545Z,10.55
2023-01-12T19:06:30.515Z,10.38
2023-01-12T19:08:57.390Z,9.38
2023-01-12T19:11:27.557Z,9.40
2023-01-12T19:13:54.313Z,9.30
2023-01-12T19:16:27.938Z,8.98
2023-01-12T19:18:55.091Z,8.55
2023-01-12T19:21:26.212Z,8.70
2023-01-12T19:23:53.130Z,9.25
2023-01-12T19:26:25.355Z,9.10
2023-01-12T19:28:55.610Z,8.88
2023-01-12T19:31:25.006Z,8.65
2023-01-12T19:33:52.838Z,9.48
2023-01-12T19:36:22.563Z,9.35
2023-01-12T19:38:59.559Z,8.95
2023-01-12T19:41:29.105Z,9.32
2023-01-12T19:43:56.076Z,8.65
2023-01-12T19:46:26.246Z,9.52
2023-01-12T19:49:11.769Z,9.02
2023-01-12T19:51:39.281Z,9.48
2023-01-12T19:54:24.820Z,9.13
2023-01-12T19:56:58.380Z,10.02
2023-01-12T19:59:31.183Z,8.90
2023-01-12T20:02:01.419Z,10.55
2023-01-12T20:04:32.225Z,10.23
2023-01-12T20:07:02.215Z,9.77
2023-01-12T20:09:31.163Z,10.20
2023-01-12T20:12:04.877Z,9.75
2023-01-12T20:14:32.159Z,10.10
2023-01-12T20:17:01.937Z,9.40
2023-01-12T20:19:28.920Z,9.93
2023-01-12T20:21:56.468Z,9.23
2023-01-12T20:24:23.388Z,9.32
2023-01-12T20:26:53.776Z,9.43
2023-01-12T20:29:21.589Z,9.30
2023-01-12T20:31:51.549Z,9.45
2023-01-12T20:34:22.927Z,8.75
2023-01-12T20:36:52.992Z,8.65
2023-01-12T20:39:23.865Z,8.25
2023-01-12T20:41:56.745Z,8.70
2023-01-12T20:44:26.359Z,9.18
2023-01-12T20:46:59.609Z,8.75
2023-01-12T20:49:29.156Z,8.75
2023-01-12T20:52:01.852Z,8.38
2023-01-12T20:54:31.958Z,8.52
2023-01-12T20:56:59.038Z,8.98
2023-01-12T20:59:25.978Z,8.25
2023-01-12T21:01:53.565Z,8.40
2023-01-12T21:04:20.630Z,8.25
2023-01-12T21:06:50.580Z,8.05
2023-01-12T21:09:17.844Z,8.82
2023-01-12T21:11:47.845Z,8.07
2023-01-12T21:14:18.099Z,8.15
2023-01-12T21:16:48.016Z,8.10
2023-01-12T21:19:14.856Z,8.30
2023-01-12T21:21:44.230Z,8.10
2023-01-12T21:24:11.187Z,8.05
2023-01-12T21:26:38.016Z,7.80
2023-01-12T21:29:11.286Z,8.25
2023-01-12T21:31:41.263Z,8.18
2023-01-12T21:34:16.141Z,7.85
2023-01-12T21:36:42.916Z,7.85
2023-01-12T21:39:09.881Z,7.70
2023-01-12T21:41:36.736Z,8.35
2023-01-12T21:44:06.682Z,7.57
2023-01-12T21:46:33.614Z,8.27
2023-01-12T21:49:00.431Z,7.82
2023-01-12T21:51:36.578Z,7.85
2023-01-12T21:54:04.029Z,7.75
2023-01-12T21:56:36.497Z,7.60
2023-01-12T21:59:06.715Z,8.00
2023-01-12T22:01:37.960Z,7.78
2023-01-12T22:04:11.806Z,8.18
2023-01-12T22:06:41.753Z,7.55
2023-01-12T22:09:14.703Z,7.90
2023-01-12T22:14:15.118Z,8.48
2023-01-12T22:16:46.330Z,7.82
2023-01-12T22:19:19.324Z,8.07
2023-01-12T22:24:18.887Z,8.05
2023-01-12T22:26:52.454Z,7.47
2023-01-12T22:29:22.528Z,7.05
2023-01-12T22:31:50.199Z,7.12
2023-01-12T22:34:20.180Z,7.50
2023-01-12T22:37:25.505Z,6.70
2023-01-12T22:39:55.692Z,6.80
2023-01-12T22:46:13.186Z,7.10
2023-01-12T22:51:51.682Z,7.07
2023-01-12T22:58:26.977Z,7.30
2023-01-12T23:01:02.198Z,6.93
2023-01-12T23:03:30.453Z,7.37
2023-01-12T23:06:20.667Z,6.93
2023-01-12T23:08:56.038Z,7.22
2023-01-12T23:11:42.795Z,7.05
2023-01-12T23:14:51.165Z,6.72
2023-01-12T23:17:20.058Z,6.70
2023-01-12T23:19:54.028Z,7.30
2023-01-12T23:22:59.998Z,6.85
2023-01-12T23:25:36.714Z,7.00
2023-01-12T23:28:43.055Z,6.47
2023-01-12T23:31:18.194Z,6.57
2023-01-12T23:34:22.493Z,6.28
2023-01-12T23:40:07.546Z,6.25
2023-01-12T23:42:54.029Z,6.67
2023-01-12T23:45:42.662Z,6.70
2023-01-12T23:48:16.445Z,6.40
2023-01-12T23:57:48.187Z,6.35
